sensor_id;sensor_type;location;lat;lon;timestamp;temperature;humidity
46754;DHT22;32500;50.620;3.400;2024-02-28T00:00:01;14.90;66.10
46754;DHT22;32500;50.620;3.400;2024-02-28T00:02:26;14.90;66.20
46754;DHT22;32500;50.620;3.400;2024-02-28T00:04:53;14.90;66.20
46754;DHT22;32500;50.620;3.400;2024-02-28T00:07:19;14.90;66.20
46754;DHT22;32500;50.620;3.400;2024-02-28T00:09:44;14.90;66.30
46754;DHT22;32500;50.620;3.400;2024-02-28T00:12:10;14.80;66.30
46754;DHT22;32500;50.620;3.400;2024-02-28T00:14:36;14.80;66.20
46754;DHT22;32500;50.620;3.400;2024-02-28T00:17:01;14.80;66.20
46754;DHT22;32500;50.620;3.400;2024-02-28T00:19:27;14.80;66.30
46754;DHT22;32500;50.620;3.400;2024-02-28T00:21:53;14.80;66.40
46754;DHT22;32500;50.620;3.400;2024-02-28T00:24:19;14.70;66.30
46754;DHT22;32500;50.620;3.400;2024-02-28T00:26:44;14.70;66.30
46754;DHT22;32500;50.620;3.400;2024-02-28T00:29:10;14.70;66.40
46754;DHT22;32500;50.620;3.400;2024-02-28T00:31:36;14.70;66.40
46754;DHT22;32500;50.620;3.400;2024-02-28T00:34:01;14.70;66.50
46754;DHT22;32500;50.620;3.400;2024-02-28T00:36:27;14.70;66.40
46754;DHT22;32500;50.620;3.400;2024-02-28T00:38:56;14.60;66.50
46754;DHT22;32500;50.620;3.400;2024-02-28T00:41:21;14.70;66.60
46754;DHT22;32500;50.620;3.400;2024-02-28T00:43:47;14.60;66.40
46754;DHT22;32500;50.620;3.400;2024-02-28T00:46:13;14.60;66.50
46754;DHT22;32500;50.620;3.400;2024-02-28T00:48:39;14.60;66.50
46754;DHT22;32500;50.620;3.400;2024-02-28T00:51:05;14.60;66.50
46754;DHT22;32500;50.620;3.400;2024-02-28T00:53:33;14.60;66.50
46754;DHT22;32500;50.620;3.400;2024-02-28T00:55:59;14.50;66.50
46754;DHT22;32500;50.620;3.400;2024-02-28T00:58:25;14.50;66.40
46754;DHT22;32500;50.620;3.400;2024-02-28T01:00:53;14.50;66.40
46754;DHT22;32500;50.620;3.400;2024-02-28T01:03:19;14.50;66.30
46754;DHT22;32500;50.620;3.400;2024-02-28T01:05:45;14.50;66.40
46754;DHT22;32500;50.620;3.400;2024-02-28T01:08:10;14.50;66.30
46754;DHT22;32500;50.620;3.400;2024-02-28T01:10:36;14.40;66.40
46754;DHT22;32500;50.620;3.400;2024-02-28T01:13:03;14.40;66.40
46754;DHT22;32500;50.620;3.400;2024-02-28T01:15:29;14.40;66.30
46754;DHT22;32500;50.620;3.400;2024-02-28T01:17:55;14.40;66.40
46754;DHT22;32500;50.620;3.400;2024-02-28T01:20:20;14.40;66.50
46754;DHT22;32500;50.620;3.400;2024-02-28T01:22:46;14.40;66.40
46754;DHT22;32500;50.620;3.400;2024-02-28T01:25:13;14.40;66.40
46754;DHT22;32500;50.620;3.400;2024-02-28T01:27:38;14.30;66.40
46754;DHT22;32500;50.620;3.400;2024-02-28T01:30:05;14.30;66.40
46754;DHT22;32500;50.620;3.400;2024-02-28T01:32:31;14.30;66.40
46754;DHT22;32500;50.620;3.400;2024-02-28T01:34:57;14.30;66.30
46754;DHT22;32500;50.620;3.400;2024-02-28T01:37:22;14.30;66.40
46754;DHT22;32500;50.620;3.400;2024-02-28T01:39:48;14.30;66.50
46754;DHT22;32500;50.620;3.400;2024-02-28T01:42:14;14.20;66.30
46754;DHT22;32500;50.620;3.400;2024-02-28T01:44:44;14.20;66.40
46754;DHT22;32500;50.620;3.400;2024-02-28T01:47:11;14.20;66.40
46754;DHT22;32500;50.620;3.400;2024-02-28T01:49:38;14.20;66.50
46754;DHT22;32500;50.620;3.400;2024-02-28T01:52:04;14.20;66.50
46754;DHT22;32500;50.620;3.400;2024-02-28T01:54:31;14.10;66.50
46754;DHT22;32500;50.620;3.400;2024-02-28T01:56:57;14.10;66.60
46754;DHT22;32500;50.620;3.400;2024-02-28T01:59:24;14.10;66.50
46754;DHT22;32500;50.620;3.400;2024-02-28T02:01:51;14.10;66.60
46754;DHT22;32500;50.620;3.400;2024-02-28T02:04:17;14.10;66.50
46754;DHT22;32500;50.620;3.400;2024-02-28T02:06:44;14.10;66.60
46754;DHT22;32500;50.620;3.400;2024-02-28T02:09:11;14.10;66.50
46754;DHT22;32500;50.620;3.400;2024-02-28T02:11:38;14.10;66.60
46754;DHT22;32500;50.620;3.400;2024-02-28T02:14:04;14.00;66.50
46754;DHT22;32500;50.620;3.400;2024-02-28T02:16:30;14.00;66.50
46754;DHT22;32500;50.620;3.400;2024-02-28T02:18:56;14.00;66.50
46754;DHT22;32500;50.620;3.400;2024-02-28T02:21:30;14.00;66.60
46754;DHT22;32500;50.620;3.400;2024-02-28T02:23:55;14.00;66.60
46754;DHT22;32500;50.620;3.400;2024-02-28T02:26:21;14.00;66.50
46754;DHT22;32500;50.620;3.400;2024-02-28T02:28:47;14.00;66.60
46754;DHT22;32500;50.620;3.400;2024-02-28T02:31:13;13.90;66.50
46754;DHT22;32500;50.620;3.400;2024-02-28T02:33:39;14.00;66.60
46754;DHT22;32500;50.620;3.400;2024-02-28T02:36:05;13.90;66.50
46754;DHT22;32500;50.620;3.400;2024-02-28T02:38:31;13.90;66.50
46754;DHT22;32500;50.620;3.400;2024-02-28T02:40:56;13.90;66.50
46754;DHT22;32500;50.620;3.400;2024-02-28T02:43:22;13.90;66.50
46754;DHT22;32500;50.620;3.400;2024-02-28T02:45:48;13.90;66.60
46754;DHT22;32500;50.620;3.400;2024-02-28T02:48:13;13.80;66.60
46754;DHT22;32500;50.620;3.400;2024-02-28T02:50:39;13.80;66.60
46754;DHT22;32500;50.620;3.400;2024-02-28T02:53:08;13.80;66.50
46754;DHT22;32500;50.620;3.400;2024-02-28T02:55:34;13.80;66.60
46754;DHT22;32500;50.620;3.400;2024-02-28T02:58:00;13.80;66.60
46754;DHT22;32500;50.620;3.400;2024-02-28T03:00:26;13.80;66.60
46754;DHT22;32500;50.620;3.400;2024-02-28T03:02:51;13.70;66.50
46754;DHT22;32500;50.620;3.400;2024-02-28T03:05:17;13.70;66.50
46754;DHT22;32500;50.620;3.400;2024-02-28T03:07:43;13.70;66.50
46754;DHT22;32500;50.620;3.400;2024-02-28T03:10:08;13.70;66.50
46754;DHT22;32500;50.620;3.400;2024-02-28T03:12:35;13.70;66.60
46754;DHT22;32500;50.620;3.400;2024-02-28T03:15:01;13.70;66.60
46754;DHT22;32500;50.620;3.400;2024-02-28T03:17:28;13.70;66.60
46754;DHT22;32500;50.620;3.400;2024-02-28T03:19:54;13.70;66.50
46754;DHT22;32500;50.620;3.400;2024-02-28T03:22:20;13.70;66.50
46754;DHT22;32500;50.620;3.400;2024-02-28T03:24:46;13.70;66.50
46754;DHT22;32500;50.620;3.400;2024-02-28T03:27:12;13.70;66.40
46754;DHT22;32500;50.620;3.400;2024-02-28T03:29:37;13.70;66.50
46754;DHT22;32500;50.620;3.400;2024-02-28T03:32:03;13.60;66.50
46754;DHT22;32500;50.620;3.400;2024-02-28T03:34:29;13.60;66.40
46754;DHT22;32500;50.620;3.400;2024-02-28T03:36:55;13.60;66.50
46754;DHT22;32500;50.620;3.400;2024-02-28T03:39:21;13.60;66.50
46754;DHT22;32500;50.620;3.400;2024-02-28T03:41:47;13.50;66.50
46754;DHT22;32500;50.620;3.400;2024-02-28T03:44:12;13.60;66.50
46754;DHT22;32500;50.620;3.400;2024-02-28T03:46:38;13.60;66.50
46754;DHT22;32500;50.620;3.400;2024-02-28T03:49:04;13.50;66.50
46754;DHT22;32500;50.620;3.400;2024-02-28T03:51:29;13.50;66.50
46754;DHT22;32500;50.620;3.400;2024-02-28T03:53:55;13.60;66.40
46754;DHT22;32500;50.620;3.400;2024-02-28T03:56:25;13.50;66.30
46754;DHT22;32500;50.620;3.400;2024-02-28T03:58:51;13.50;66.30
46754;DHT22;32500;50.620;3.400;2024-02-28T04:01:17;13.50;66.40
46754;DHT22;32500;50.620;3.400;2024-02-28T04:03:43;13.50;66.30
46754;DHT22;32500;50.620;3.400;2024-02-28T04:06:09;13.50;66.60
46754;DHT22;32500;50.620;3.400;2024-02-28T04:08:34;13.50;66.30
46754;DHT22;32500;50.620;3.400;2024-02-28T04:11:00;13.50;66.30
46754;DHT22;32500;50.620;3.400;2024-02-28T04:13:26;13.50;66.30
46754;DHT22;32500;50.620;3.400;2024-02-28T04:15:51;13.50;66.30
46754;DHT22;32500;50.620;3.400;2024-02-28T04:18:17;13.50;66.70
46754;DHT22;32500;50.620;3.400;2024-02-28T04:20:43;13.50;66.30
46754;DHT22;32500;50.620;3.400;2024-02-28T04:23:09;13.50;66.30
46754;DHT22;32500;50.620;3.400;2024-02-28T04:25:34;13.50;66.30
46754;DHT22;32500;50.620;3.400;2024-02-28T04:28:01;13.50;66.20
46754;DHT22;32500;50.620;3.400;2024-02-28T04:30:28;13.50;66.20
46754;DHT22;32500;50.620;3.400;2024-02-28T04:32:53;13.50;66.20
46754;DHT22;32500;50.620;3.400;2024-02-28T04:35:19;13.50;66.20
46754;DHT22;32500;50.620;3.400;2024-02-28T04:37:46;13.50;66.10
46754;DHT22;32500;50.620;3.400;2024-02-28T04:40:12;13.50;66.10
46754;DHT22;32500;50.620;3.400;2024-02-28T04:42:39;13.50;66.10
46754;DHT22;32500;50.620;3.400;2024-02-28T04:45:05;13.50;66.00
46754;DHT22;32500;50.620;3.400;2024-02-28T04:47:31;13.50;65.90
46754;DHT22;32500;50.620;3.400;2024-02-28T04:49:57;13.50;65.90
46754;DHT22;32500;50.620;3.400;2024-02-28T04:52:23;13.50;66.00
46754;DHT22;32500;50.620;3.400;2024-02-28T04:54:50;13.50;65.90
46754;DHT22;32500;50.620;3.400;2024-02-28T04:57:16;13.50;66.00
46754;DHT22;32500;50.620;3.400;2024-02-28T04:59:43;13.50;65.90
46754;DHT22;32500;50.620;3.400;2024-02-28T05:02:09;13.50;65.90
46754;DHT22;32500;50.620;3.400;2024-02-28T05:04:35;13.50;66.00
46754;DHT22;32500;50.620;3.400;2024-02-28T05:07:01;13.40;66.00
46754;DHT22;32500;50.620;3.400;2024-02-28T05:09:26;13.40;66.00
46754;DHT22;32500;50.620;3.400;2024-02-28T05:11:52;13.50;66.10
46754;DHT22;32500;50.620;3.400;2024-02-28T05:14:18;13.40;66.00
46754;DHT22;32500;50.620;3.400;2024-02-28T05:16:44;13.50;66.00
46754;DHT22;32500;50.620;3.400;2024-02-28T05:19:09;13.40;65.90
46754;DHT22;32500;50.620;3.400;2024-02-28T05:21:42;13.50;66.00
46754;DHT22;32500;50.620;3.400;2024-02-28T05:24:08;13.40;65.90
46754;DHT22;32500;50.620;3.400;2024-02-28T05:26:38;13.50;65.90
46754;DHT22;32500;50.620;3.400;2024-02-28T05:29:04;13.40;65.90
46754;DHT22;32500;50.620;3.400;2024-02-28T05:31:30;13.40;65.90
46754;DHT22;32500;50.620;3.400;2024-02-28T05:34:00;13.40;66.00
46754;DHT22;32500;50.620;3.400;2024-02-28T05:36:28;13.40;66.10
46754;DHT22;32500;50.620;3.400;2024-02-28T05:38:56;13.50;66.00
46754;DHT22;32500;50.620;3.400;2024-02-28T05:41:22;13.50;66.20
46754;DHT22;32500;50.620;3.400;2024-02-28T05:43:48;13.50;66.30
46754;DHT22;32500;50.620;3.400;2024-02-28T05:46:15;13.50;66.30
46754;DHT22;32500;50.620;3.400;2024-02-28T05:48:41;13.50;66.90
46754;DHT22;32500;50.620;3.400;2024-02-28T05:51:07;13.50;66.90
46754;DHT22;32500;50.620;3.400;2024-02-28T05:53:33;13.50;67.00
46754;DHT22;32500;50.620;3.400;2024-02-28T05:56:02;13.50;67.00
46754;DHT22;32500;50.620;3.400;2024-02-28T05:58:28;13.60;67.30
46754;DHT22;32500;50.620;3.400;2024-02-28T06:00:54;13.60;67.40
46754;DHT22;32500;50.620;3.400;2024-02-28T06:03:19;13.60;67.30
46754;DHT22;32500;50.620;3.400;2024-02-28T06:05:45;13.60;67.10
46754;DHT22;32500;50.620;3.400;2024-02-28T06:08:12;13.60;67.20
46754;DHT22;32500;50.620;3.400;2024-02-28T06:10:38;13.50;67.40
46754;DHT22;32500;50.620;3.400;2024-02-28T06:13:04;13.50;67.20
46754;DHT22;32500;50.620;3.400;2024-02-28T06:15:29;13.50;67.20
46754;DHT22;32500;50.620;3.400;2024-02-28T06:17:59;13.50;67.40
46754;DHT22;32500;50.620;3.400;2024-02-28T06:20:26;13.60;67.60
46754;DHT22;32500;50.620;3.400;2024-02-28T06:22:52;13.60;67.40
46754;DHT22;32500;50.620;3.400;2024-02-28T06:25:18;13.50;67.20
46754;DHT22;32500;50.620;3.400;2024-02-28T06:27:45;13.50;67.30
46754;DHT22;32500;50.620;3.400;2024-02-28T06:30:11;13.50;67.50
46754;DHT22;32500;50.620;3.400;2024-02-28T06:32:40;13.50;67.30
46754;DHT22;32500;50.620;3.400;2024-02-28T06:35:09;13.50;67.20
46754;DHT22;32500;50.620;3.400;2024-02-28T06:37:35;13.50;67.30
46754;DHT22;32500;50.620;3.400;2024-02-28T06:40:02;13.50;67.20
46754;DHT22;32500;50.620;3.400;2024-02-28T06:42:29;13.50;67.30
46754;DHT22;32500;50.620;3.400;2024-02-28T06:44:55;13.50;67.30
46754;DHT22;32500;50.620;3.400;2024-02-28T06:47:21;13.50;67.30
46754;DHT22;32500;50.620;3.400;2024-02-28T06:49:46;13.50;67.40
46754;DHT22;32500;50.620;3.400;2024-02-28T06:52:13;13.50;67.60
46754;DHT22;32500;50.620;3.400;2024-02-28T06:54:39;13.50;67.80
46754;DHT22;32500;50.620;3.400;2024-02-28T06:57:05;13.50;67.60
46754;DHT22;32500;50.620;3.400;2024-02-28T06:59:30;13.50;67.50
46754;DHT22;32500;50.620;3.400;2024-02-28T07:01:56;13.50;67.50
46754;DHT22;32500;50.620;3.400;2024-02-28T07:04:22;13.50;67.50
46754;DHT22;32500;50.620;3.400;2024-02-28T07:06:48;13.50;67.50
46754;DHT22;32500;50.620;3.400;2024-02-28T07:09:14;13.50;67.40
46754;DHT22;32500;50.620;3.400;2024-02-28T07:11:40;13.50;67.40
46754;DHT22;32500;50.620;3.400;2024-02-28T07:14:06;13.50;67.40
46754;DHT22;32500;50.620;3.400;2024-02-28T07:16:32;13.50;67.20
46754;DHT22;32500;50.620;3.400;2024-02-28T07:19:00;13.50;67.40
46754;DHT22;32500;50.620;3.400;2024-02-28T07:21:25;13.50;67.40
46754;DHT22;32500;50.620;3.400;2024-02-28T07:23:51;13.50;67.30
46754;DHT22;32500;50.620;3.400;2024-02-28T07:26:17;13.40;67.30
46754;DHT22;32500;50.620;3.400;2024-02-28T07:28:43;13.50;67.40
46754;DHT22;32500;50.620;3.400;2024-02-28T07:31:18;13.50;67.40
46754;DHT22;32500;50.620;3.400;2024-02-28T07:33:44;13.50;67.40
46754;DHT22;32500;50.620;3.400;2024-02-28T07:36:10;13.50;67.20
46754;DHT22;32500;50.620;3.400;2024-02-28T07:38:36;13.50;67.10
46754;DHT22;32500;50.620;3.400;2024-02-28T07:41:02;13.50;67.00
46754;DHT22;32500;50.620;3.400;2024-02-28T07:43:28;13.50;67.00
46754;DHT22;32500;50.620;3.400;2024-02-28T07:45:58;13.50;67.00
46754;DHT22;32500;50.620;3.400;2024-02-28T07:48:24;13.50;67.00
46754;DHT22;32500;50.620;3.400;2024-02-28T07:50:49;13.50;66.90
46754;DHT22;32500;50.620;3.400;2024-02-28T07:53:16;13.50;66.90
46754;DHT22;32500;50.620;3.400;2024-02-28T07:55:42;13.60;67.30
46754;DHT22;32500;50.620;3.400;2024-02-28T07:58:08;13.70;67.40
46754;DHT22;32500;50.620;3.400;2024-02-28T08:00:34;13.80;67.80
46754;DHT22;32500;50.620;3.400;2024-02-28T08:03:00;13.90;67.80
46754;DHT22;32500;50.620;3.400;2024-02-28T08:05:26;13.90;67.40
46754;DHT22;32500;50.620;3.400;2024-02-28T08:07:51;13.90;66.90
46754;DHT22;32500;50.620;3.400;2024-02-28T08:10:17;13.90;66.50
46754;DHT22;32500;50.620;3.400;2024-02-28T08:12:43;13.90;66.10
46754;DHT22;32500;50.620;3.400;2024-02-28T08:15:09;14.00;66.50
46754;DHT22;32500;50.620;3.400;2024-02-28T08:17:35;14.10;66.80
46754;DHT22;32500;50.620;3.400;2024-02-28T08:20:02;14.10;66.40
46754;DHT22;32500;50.620;3.400;2024-02-28T08:22:30;14.20;66.40
46754;DHT22;32500;50.620;3.400;2024-02-28T08:24:56;14.20;66.40
46754;DHT22;32500;50.620;3.400;2024-02-28T08:27:22;14.20;66.10
46754;DHT22;32500;50.620;3.400;2024-02-28T08:29:49;14.20;65.80
46754;DHT22;32500;50.620;3.400;2024-02-28T08:32:16;14.30;65.70
46754;DHT22;32500;50.620;3.400;2024-02-28T08:34:45;14.40;65.60
46754;DHT22;32500;50.620;3.400;2024-02-28T08:37:15;14.40;65.40
46754;DHT22;32500;50.620;3.400;2024-02-28T08:39:41;14.50;65.20
46754;DHT22;32500;50.620;3.400;2024-02-28T08:42:07;14.50;65.10
46754;DHT22;32500;50.620;3.400;2024-02-28T08:44:32;14.50;64.90
46754;DHT22;32500;50.620;3.400;2024-02-28T08:46:59;14.50;64.90
46754;DHT22;32500;50.620;3.400;2024-02-28T08:49:25;14.50;64.50
46754;DHT22;32500;50.620;3.400;2024-02-28T08:51:55;14.50;65.10
46754;DHT22;32500;50.620;3.400;2024-02-28T08:54:21;14.50;65.30
46754;DHT22;32500;50.620;3.400;2024-02-28T08:56:47;14.60;65.10
46754;DHT22;32500;50.620;3.400;2024-02-28T08:59:14;14.60;65.10
46754;DHT22;32500;50.620;3.400;2024-02-28T09:01:44;14.60;64.80
46754;DHT22;32500;50.620;3.400;2024-02-28T09:04:11;14.70;64.60
46754;DHT22;32500;50.620;3.400;2024-02-28T09:06:38;14.70;65.00
46754;DHT22;32500;50.620;3.400;2024-02-28T09:09:05;14.70;64.70
46754;DHT22;32500;50.620;3.400;2024-02-28T09:11:31;14.80;65.00
46754;DHT22;32500;50.620;3.400;2024-02-28T09:13:56;14.70;64.60
46754;DHT22;32500;50.620;3.400;2024-02-28T09:16:22;14.70;64.20
46754;DHT22;32500;50.620;3.400;2024-02-28T09:18:49;14.80;64.10
46754;DHT22;32500;50.620;3.400;2024-02-28T09:21:15;14.80;64.00
46754;DHT22;32500;50.620;3.400;2024-02-28T09:23:41;14.80;64.50
46754;DHT22;32500;50.620;3.400;2024-02-28T09:26:07;14.90;64.40
46754;DHT22;32500;50.620;3.400;2024-02-28T09:28:34;14.90;63.90
46754;DHT22;32500;50.620;3.400;2024-02-28T09:31:06;14.90;64.60
46754;DHT22;32500;50.620;3.400;2024-02-28T09:33:34;14.90;64.30
46754;DHT22;32500;50.620;3.400;2024-02-28T09:36:02;15.00;64.40
46754;DHT22;32500;50.620;3.400;2024-02-28T09:38:29;15.00;64.90
46754;DHT22;32500;50.620;3.400;2024-02-28T09:40:55;15.00;65.30
46754;DHT22;32500;50.620;3.400;2024-02-28T09:43:31;15.00;65.60
46754;DHT22;32500;50.620;3.400;2024-02-28T09:46:04;15.00;65.60
46754;DHT22;32500;50.620;3.400;2024-02-28T09:48:31;15.00;65.60
46754;DHT22;32500;50.620;3.400;2024-02-28T09:50:57;15.00;65.50
46754;DHT22;32500;50.620;3.400;2024-02-28T09:53:23;15.00;65.30
46754;DHT22;32500;50.620;3.400;2024-02-28T09:55:51;15.10;65.70
46754;DHT22;32500;50.620;3.400;2024-02-28T09:58:19;15.10;65.80
46754;DHT22;32500;50.620;3.400;2024-02-28T10:00:48;15.10;64.20
46754;DHT22;32500;50.620;3.400;2024-02-28T10:03:17;15.10;64.20
46754;DHT22;32500;50.620;3.400;2024-02-28T10:05:46;15.10;64.50
46754;DHT22;32500;50.620;3.400;2024-02-28T10:08:14;15.10;64.40
46754;DHT22;32500;50.620;3.400;2024-02-28T10:10:46;15.10;64.40
46754;DHT22;32500;50.620;3.400;2024-02-28T10:13:17;15.10;64.20
46754;DHT22;32500;50.620;3.400;2024-02-28T10:15:43;15.10;64.20
46754;DHT22;32500;50.620;3.400;2024-02-28T10:18:10;15.20;64.50
46754;DHT22;32500;50.620;3.400;2024-02-28T10:20:36;15.20;64.50
46754;DHT22;32500;50.620;3.400;2024-02-28T10:23:05;15.20;64.90
46754;DHT22;32500;50.620;3.400;2024-02-28T10:25:31;15.10;64.60
46754;DHT22;32500;50.620;3.400;2024-02-28T10:28:01;15.20;65.30
46754;DHT22;32500;50.620;3.400;2024-02-28T10:30:27;15.20;64.60
46754;DHT22;32500;50.620;3.400;2024-02-28T10:32:55;15.20;64.90
46754;DHT22;32500;50.620;3.400;2024-02-28T10:35:21;15.20;65.00
46754;DHT22;32500;50.620;3.400;2024-02-28T10:37:51;15.30;65.40
46754;DHT22;32500;50.620;3.400;2024-02-28T10:40:19;15.30;65.80
46754;DHT22;32500;50.620;3.400;2024-02-28T10:42:45;15.30;65.60
46754;DHT22;32500;50.620;3.400;2024-02-28T10:45:13;15.30;65.40
46754;DHT22;32500;50.620;3.400;2024-02-28T10:47:39;15.30;65.00
46754;DHT22;32500;50.620;3.400;2024-02-28T10:50:05;15.30;64.80
46754;DHT22;32500;50.620;3.400;2024-02-28T10:52:33;15.30;64.70
46754;DHT22;32500;50.620;3.400;2024-02-28T10:55:01;15.20;64.30
46754;DHT22;32500;50.620;3.400;2024-02-28T10:57:29;15.20;64.50
46754;DHT22;32500;50.620;3.400;2024-02-28T10:59:57;15.30;64.50
46754;DHT22;32500;50.620;3.400;2024-02-28T11:02:24;15.40;64.50
46754;DHT22;32500;50.620;3.400;2024-02-28T11:04:52;15.40;64.80
46754;DHT22;32500;50.620;3.400;2024-02-28T11:07:24;15.40;64.50
46754;DHT22;32500;50.620;3.400;2024-02-28T11:09:54;15.40;64.50
46754;DHT22;32500;50.620;3.400;2024-02-28T11:12:28;15.50;63.90
46754;DHT22;32500;50.620;3.400;2024-02-28T11:14:58;15.50;63.90
46754;DHT22;32500;50.620;3.400;2024-02-28T11:17:30;15.40;63.80
46754;DHT22;32500;50.620;3.400;2024-02-28T11:19:56;15.50;64.10
46754;DHT22;32500;50.620;3.400;2024-02-28T11:22:22;15.50;64.20
46754;DHT22;32500;50.620;3.400;2024-02-28T11:24:48;15.50;63.80
46754;DHT22;32500;50.620;3.400;2024-02-28T11:27:15;15.50;64.30
46754;DHT22;32500;50.620;3.400;2024-02-28T11:29:42;15.50;63.50
46754;DHT22;32500;50.620;3.400;2024-02-28T11:32:10;15.50;63.30
46754;DHT22;32500;50.620;3.400;2024-02-28T11:34:37;15.50;62.40
46754;DHT22;32500;50.620;3.400;2024-02-28T11:37:06;15.50;63.40
46754;DHT22;32500;50.620;3.400;2024-02-28T11:39:31;15.50;63.10
46754;DHT22;32500;50.620;3.400;2024-02-28T11:42:13;15.60;63.00
46754;DHT22;32500;50.620;3.400;2024-02-28T11:44:39;15.60;63.00
46754;DHT22;32500;50.620;3.400;2024-02-28T11:47:08;15.60;63.50
46754;DHT22;32500;50.620;3.400;2024-02-28T11:49:36;15.60;63.00
46754;DHT22;32500;50.620;3.400;2024-02-28T11:52:03;15.70;62.80
46754;DHT22;32500;50.620;3.400;2024-02-28T11:54:29;15.70;62.50
46754;DHT22;32500;50.620;3.400;2024-02-28T11:56:55;15.70;62.70
46754;DHT22;32500;50.620;3.400;2024-02-28T11:59:21;15.70;63.30
46754;DHT22;32500;50.620;3.400;2024-02-28T12:01:46;15.80;63.00
46754;DHT22;32500;50.620;3.400;2024-02-28T12:04:13;15.70;62.70
46754;DHT22;32500;50.620;3.400;2024-02-28T12:06:39;15.70;62.50
46754;DHT22;32500;50.620;3.400;2024-02-28T12:09:10;15.70;62.40
46754;DHT22;32500;50.620;3.400;2024-02-28T12:11:37;15.70;63.00
46754;DHT22;32500;50.620;3.400;2024-02-28T12:14:07;15.80;62.90
46754;DHT22;32500;50.620;3.400;2024-02-28T12:16:40;15.80;63.40
46754;DHT22;32500;50.620;3.400;2024-02-28T12:19:10;15.80;63.30
46754;DHT22;32500;50.620;3.400;2024-02-28T12:21:39;15.80;63.20
46754;DHT22;32500;50.620;3.400;2024-02-28T12:24:10;15.80;64.00
46754;DHT22;32500;50.620;3.400;2024-02-28T12:26:36;15.80;64.00
46754;DHT22;32500;50.620;3.400;2024-02-28T12:29:02;15.90;64.70
46754;DHT22;32500;50.620;3.400;2024-02-28T12:31:28;15.90;64.50
46754;DHT22;32500;50.620;3.400;2024-02-28T12:33:54;16.00;64.80
46754;DHT22;32500;50.620;3.400;2024-02-28T12:36:20;16.00;64.80
46754;DHT22;32500;50.620;3.400;2024-02-28T12:38:46;16.00;65.10
46754;DHT22;32500;50.620;3.400;2024-02-28T12:41:12;16.10;65.00
46754;DHT22;32500;50.620;3.400;2024-02-28T12:43:39;16.10;65.00
46754;DHT22;32500;50.620;3.400;2024-02-28T12:46:05;16.10;64.60
46754;DHT22;32500;50.620;3.400;2024-02-28T12:48:36;16.20;64.80
46754;DHT22;32500;50.620;3.400;2024-02-28T12:51:02;16.20;65.10
46754;DHT22;32500;50.620;3.400;2024-02-28T12:53:28;16.30;66.20
46754;DHT22;32500;50.620;3.400;2024-02-28T12:55:53;16.30;65.60
46754;DHT22;32500;50.620;3.400;2024-02-28T12:58:19;16.30;65.70
46754;DHT22;32500;50.620;3.400;2024-02-28T13:00:45;16.40;66.80
46754;DHT22;32500;50.620;3.400;2024-02-28T13:03:10;16.50;66.20
46754;DHT22;32500;50.620;3.400;2024-02-28T13:05:36;16.50;65.10
46754;DHT22;32500;50.620;3.400;2024-02-28T13:08:03;16.40;64.10
46754;DHT22;32500;50.620;3.400;2024-02-28T13:10:29;16.40;63.70
46754;DHT22;32500;50.620;3.400;2024-02-28T13:12:55;16.40;63.70
46754;DHT22;32500;50.620;3.400;2024-02-28T13:15:21;16.50;63.70
46754;DHT22;32500;50.620;3.400;2024-02-28T13:17:47;16.50;63.70
46754;DHT22;32500;50.620;3.400;2024-02-28T13:20:15;16.50;63.50
46754;DHT22;32500;50.620;3.400;2024-02-28T13:22:41;16.50;63.30
46754;DHT22;32500;50.620;3.400;2024-02-28T13:25:07;16.50;63.20
46754;DHT22;32500;50.620;3.400;2024-02-28T13:27:32;16.60;63.20
46754;DHT22;32500;50.620;3.400;2024-02-28T13:29:58;16.60;63.00
46754;DHT22;32500;50.620;3.400;2024-02-28T13:32:24;16.60;62.90
46754;DHT22;32500;50.620;3.400;2024-02-28T13:34:49;16.70;62.90
46754;DHT22;32500;50.620;3.400;2024-02-28T13:37:15;16.80;63.20
46754;DHT22;32500;50.620;3.400;2024-02-28T13:39:40;16.90;63.20
46754;DHT22;32500;50.620;3.400;2024-02-28T13:42:06;16.90;63.20
46754;DHT22;32500;50.620;3.400;2024-02-28T13:44:34;17.00;62.80
46754;DHT22;32500;50.620;3.400;2024-02-28T13:47:02;17.00;62.70
46754;DHT22;32500;50.620;3.400;2024-02-28T13:49:28;17.10;62.70
46754;DHT22;32500;50.620;3.400;2024-02-28T13:51:54;17.10;62.70
46754;DHT22;32500;50.620;3.400;2024-02-28T13:54:19;17.10;62.60
46754;DHT22;32500;50.620;3.400;2024-02-28T13:56:45;17.20;62.50
46754;DHT22;32500;50.620;3.400;2024-02-28T13:59:11;17.20;62.10
46754;DHT22;32500;50.620;3.400;2024-02-28T14:01:37;17.20;62.20
46754;DHT22;32500;50.620;3.400;2024-02-28T14:04:02;17.30;62.70
46754;DHT22;32500;50.620;3.400;2024-02-28T14:06:29;17.30;62.50
46754;DHT22;32500;50.620;3.400;2024-02-28T14:08:54;17.40;62.30
46754;DHT22;32500;50.620;3.400;2024-02-28T14:11:21;17.40;62.50
46754;DHT22;32500;50.620;3.400;2024-02-28T14:13:47;17.40;62.40
46754;DHT22;32500;50.620;3.400;2024-02-28T14:16:13;17.50;62.50
46754;DHT22;32500;50.620;3.400;2024-02-28T14:18:38;17.50;62.20
46754;DHT22;32500;50.620;3.400;2024-02-28T14:21:04;17.10;62.50
46754;DHT22;32500;50.620;3.400;2024-02-28T14:23:30;16.90;63.00
46754;DHT22;32500;50.620;3.400;2024-02-28T14:25:56;16.80;63.60
46754;DHT22;32500;50.620;3.400;2024-02-28T14:28:22;16.80;63.80
46754;DHT22;32500;50.620;3.400;2024-02-28T14:30:48;16.70;63.90
46754;DHT22;32500;50.620;3.400;2024-02-28T14:33:15;16.60;64.00
46754;DHT22;32500;50.620;3.400;2024-02-28T14:35:41;16.60;64.20
46754;DHT22;32500;50.620;3.400;2024-02-28T14:38:07;16.60;64.20
46754;DHT22;32500;50.620;3.400;2024-02-28T14:40:33;16.60;64.30
46754;DHT22;32500;50.620;3.400;2024-02-28T14:42:58;16.60;64.50
46754;DHT22;32500;50.620;3.400;2024-02-28T14:45:24;16.60;64.50
46754;DHT22;32500;50.620;3.400;2024-02-28T14:47:52;16.70;65.70
46754;DHT22;32500;50.620;3.400;2024-02-28T14:50:17;16.90;65.40
46754;DHT22;32500;50.620;3.400;2024-02-28T14:52:43;17.00;65.60
46754;DHT22;32500;50.620;3.400;2024-02-28T14:55:10;17.10;64.70
46754;DHT22;32500;50.620;3.400;2024-02-28T14:57:37;17.20;64.10
46754;DHT22;32500;50.620;3.400;2024-02-28T15:00:03;17.30;63.30
46754;DHT22;32500;50.620;3.400;2024-02-28T15:02:37;17.40;62.60
46754;DHT22;32500;50.620;3.400;2024-02-28T15:05:03;17.50;62.20
46754;DHT22;32500;50.620;3.400;2024-02-28T15:07:32;17.60;62.00
46754;DHT22;32500;50.620;3.400;2024-02-28T15:09:58;17.60;61.80
46754;DHT22;32500;50.620;3.400;2024-02-28T15:12:29;17.70;61.90
46754;DHT22;32500;50.620;3.400;2024-02-28T15:14:56;17.70;62.00
46754;DHT22;32500;50.620;3.400;2024-02-28T15:17:21;17.70;61.90
46754;DHT22;32500;50.620;3.400;2024-02-28T15:19:47;17.70;61.80
46754;DHT22;32500;50.620;3.400;2024-02-28T15:22:13;17.70;61.60
46754;DHT22;32500;50.620;3.400;2024-02-28T15:24:39;17.80;61.60